PWSweather.com
Personal Weather Stations
Station Observations
NCOUTPOST
Sheer Clifftop Utah Mountain, Waynesville, NC 28785

Sheer Clifftop Utah MountainWaynesville, NC 28785

Lat: 35.548, Lon: -82.982

Elevation: 3500

Station Type: Davis VUE 6250

Latest ConditionsUpdated 3:51:08 AM EST Monday, Nov 24, 2014
Currently Today's Max Today's Min Today's Average
Temperature 53.5°F11.9°C 54.4°F12.4°C 53.5°F11.9°C 54.0°F12.2°C
Dew Point 49.1°F9.5°C 50.4°F10.2°C 49.0°F9.4°C 49.9°F9.9°C
Winds 22.0 mph SE35.4 kmh SE 31.0 mph E49.9 kmh E - 13.2 mph 21.2 kmh
Wind Gusts 26.0 mph41.8 kmh 36.0 mph57.9 kmh - -
Humidity 85% 88% 83% 86%
Pressure 29.59 in1002.0 mb 29.61 in1002.7 mb 29.57 in1001.4 mb -
Hour Temp Dew Point Humidity Winds Wind Gusts Pressure Precip Precip Rate Daily Precip Total
03:51 AM 53.5°F11.9°C 49.1°F9.5°C 85% 22.0 mph SE35.4 kmh SE 26.0 mph41.8 kmh 29.59 in1002.0 mb 0.00 in0.0 mm 0.00 in/hr0.0 mm/hr 0.00 in0.0 mm
03:50 AM 53.6°F12.0°C 49.2°F9.6°C 85% 5.0 mph E8.0 kmh E 26.0 mph41.8 kmh 29.59 in1002.0 mb 0.00 in0.0 mm 0.00 in/hr0.0 mm/hr 0.00 in0.0 mm
03:49 AM 53.7°F12.1°C 49.3°F9.6°C 85% 9.0 mph E14.5 kmh E 26.0 mph41.8 kmh 29.58 in1001.7 mb 0.00 in0.0 mm 0.00 in/hr0.0 mm/hr 0.00 in0.0 mm
03:48 AM 53.8°F12.1°C 49.1°F9.5°C 84% 4.0 mph ENE6.4 kmh ENE 26.0 mph41.8 kmh 29.59 in1002.0 mb 0.00 in0.0 mm 0.00 in/hr0.0 mm/hr 0.00 in0.0 mm
03:47 AM 53.9°F12.2°C 49.2°F9.6°C 84% 10.0 mph SE16.1 kmh SE 26.0 mph41.8 kmh 29.59 in1002.0 mb 0.00 in0.0 mm 0.00 in/hr0.0 mm/hr 0.00 in0.0 mm
03:46 AM 54.0°F12.2°C 49.3°F9.6°C 84% 8.0 mph E12.9 kmh E 26.0 mph41.8 kmh 29.59 in1002.0 mb 0.00 in0.0 mm 0.00 in/hr0.0 mm/hr 0.00 in0.0 mm
03:45 AM 54.0°F12.2°C 49.0°F9.4°C 83% 6.0 mph E9.7 kmh E 26.0 mph41.8 kmh 29.59 in1002.0 mb 0.00 in0.0 mm 0.00 in/hr0.0 mm/hr 0.00 in0.0 mm
03:44 AM 54.0°F12.2°C 49.0°F9.4°C 83% 11.0 mph E17.7 kmh E 26.0 mph41.8 kmh 29.59 in1002.0 mb 0.00 in0.0 mm 0.00 in/hr0.0 mm/hr 0.00 in0.0 mm
03:43 AM 54.0°F12.2°C 49.0°F9.4°C 83% 13.0 mph SE20.9 kmh SE 26.0 mph41.8 kmh 29.59 in1002.0 mb 0.00 in0.0 mm 0.00 in/hr0.0 mm/hr 0.00 in0.0 mm
03:42 AM 54.0°F12.2°C 49.0°F9.4°C 83% 23.0 mph ESE37.0 kmh ESE 26.0 mph41.8 kmh 29.59 in1002.0 mb 0.00 in0.0 mm 0.00 in/hr0.0 mm/hr 0.00 in0.0 mm
03:41 AM 54.0°F12.2°C 49.0°F9.4°C 83% 10.0 mph E16.1 kmh E 26.0 mph41.8 kmh 29.59 in1002.0 mb 0.00 in0.0 mm 0.00 in/hr0.0 mm/hr 0.00 in0.0 mm
03:40 AM 54.0°F12.2°C 49.0°F9.4°C 83% 6.0 mph ENE9.7 kmh ENE 26.0 mph41.8 kmh 29.59 in1002.0 mb 0.00 in0.0 mm 0.00 in/hr0.0 mm/hr 0.00 in0.0 mm
03:39 AM 54.0°F12.2°C 49.0°F9.4°C 83% 17.0 mph ESE27.4 kmh ESE 26.0 mph41.8 kmh 29.59 in1002.0 mb 0.00 in0.0 mm 0.00 in/hr0.0 mm/hr 0.00 in0.0 mm
03:38 AM 54.0°F12.2°C 49.3°F9.6°C 84% 13.0 mph ESE20.9 kmh ESE 26.0 mph41.8 kmh 29.59 in1002.0 mb 0.00 in0.0 mm 0.00 in/hr0.0 mm/hr 0.00 in0.0 mm
03:37 AM 54.0°F12.2°C 49.0°F9.4°C 83% 12.0 mph ESE19.3 kmh ESE 26.0 mph41.8 kmh 29.59 in1002.0 mb 0.00 in0.0 mm 0.00 in/hr0.0 mm/hr 0.00 in0.0 mm
03:36 AM 54.1°F12.3°C 49.4°F9.7°C 84% 23.0 mph ESE37.0 kmh ESE 26.0 mph41.8 kmh 29.59 in1002.0 mb 0.00 in0.0 mm 0.00 in/hr0.0 mm/hr 0.00 in0.0 mm
03:35 AM 54.1°F12.3°C 49.4°F9.7°C 84% 11.0 mph ESE17.7 kmh ESE 21.0 mph33.8 kmh 29.60 in1002.4 mb 0.00 in0.0 mm 0.00 in/hr0.0 mm/hr 0.00 in0.0 mm
03:34 AM 54.1°F12.3°C 49.1°F9.5°C 83% 4.0 mph E6.4 kmh E 21.0 mph33.8 kmh 29.59 in1002.0 mb 0.00 in0.0 mm 0.00 in/hr0.0 mm/hr 0.00 in0.0 mm
03:33 AM 54.1°F12.3°C 49.1°F9.5°C 83% 14.0 mph ESE22.5 kmh ESE 21.0 mph33.8 kmh 29.59 in1002.0 mb 0.00 in0.0 mm 0.00 in/hr0.0 mm/hr 0.00 in0.0 mm
03:32 AM 54.1°F12.3°C 49.1°F9.5°C 83% 12.0 mph ESE19.3 kmh ESE 12.0 mph19.3 kmh 29.59 in1002.0 mb 0.00 in0.0 mm 0.00 in/hr0.0 mm/hr 0.00 in0.0 mm
03:31 AM 54.1°F12.3°C 49.1°F9.5°C 83% 5.0 mph E8.0 kmh E 21.0 mph33.8 kmh 29.60 in1002.4 mb 0.00 in0.0 mm 0.00 in/hr0.0 mm/hr 0.00 in0.0 mm
03:30 AM 54.0°F12.2°C 49.0°F9.4°C 83% 10.0 mph ESE16.1 kmh ESE 21.0 mph33.8 kmh 29.60 in1002.4 mb 0.00 in0.0 mm 0.00 in/hr0.0 mm/hr 0.00 in0.0 mm
03:29 AM 53.9°F12.2°C 49.2°F9.6°C 84% 13.0 mph SE20.9 kmh SE 21.0 mph33.8 kmh 29.59 in1002.0 mb 0.00 in0.0 mm 0.00 in/hr0.0 mm/hr 0.00 in0.0 mm
03:28 AM 53.9°F12.2°C 49.2°F9.6°C 84% 8.0 mph NE12.9 kmh NE 21.0 mph33.8 kmh 29.60 in1002.4 mb 0.00 in0.0 mm 0.00 in/hr0.0 mm/hr 0.00 in0.0 mm
03:27 AM 53.9°F12.2°C 49.2°F9.6°C 84% 12.0 mph ENE19.3 kmh ENE 21.0 mph33.8 kmh 29.60 in1002.4 mb 0.00 in0.0 mm 0.00 in/hr0.0 mm/hr 0.00 in0.0 mm
03:26 AM 53.9°F12.2°C 49.2°F9.6°C 84% 8.0 mph SE12.9 kmh SE 21.0 mph33.8 kmh 29.60 in1002.4 mb 0.00 in0.0 mm 0.00 in/hr0.0 mm/hr 0.00 in0.0 mm
03:25 AM 53.9°F12.2°C 49.5°F9.7°C 85% 7.0 mph E11.3 kmh E 21.0 mph33.8 kmh 29.60 in1002.4 mb 0.00 in0.0 mm 0.00 in/hr0.0 mm/hr 0.00 in0.0 mm
03:24 AM 53.9°F12.2°C 49.5°F9.7°C 85% 7.0 mph ENE11.3 kmh ENE 21.0 mph33.8 kmh 29.60 in1002.4 mb 0.00 in0.0 mm 0.00 in/hr0.0 mm/hr 0.00 in0.0 mm
03:23 AM 54.0°F12.2°C 49.6°F9.8°C 85% 9.0 mph E14.5 kmh E 21.0 mph33.8 kmh 29.60 in1002.4 mb 0.00 in0.0 mm 0.00 in/hr0.0 mm/hr 0.00 in0.0 mm
03:22 AM 54.0°F12.2°C 49.6°F9.8°C 85% 7.0 mph E11.3 kmh E 21.0 mph33.8 kmh 29.60 in1002.4 mb 0.00 in0.0 mm 0.00 in/hr0.0 mm/hr 0.00 in0.0 mm
03:21 AM 54.0°F12.2°C 49.3°F9.6°C 84% 5.0 mph E8.0 kmh E 21.0 mph33.8 kmh 29.60 in1002.4 mb 0.00 in0.0 mm 0.00 in/hr0.0 mm/hr 0.00 in0.0 mm
03:20 AM 54.0°F12.2°C 49.3°F9.6°C 84% 9.0 mph NE14.5 kmh NE 20.0 mph32.2 kmh 29.60 in1002.4 mb 0.00 in0.0 mm 0.00 in/hr0.0 mm/hr 0.00 in0.0 mm
03:19 AM 54.1°F12.3°C 49.4°F9.7°C 84% 5.0 mph E8.0 kmh E 20.0 mph32.2 kmh 29.60 in1002.4 mb 0.00 in0.0 mm 0.00 in/hr0.0 mm/hr 0.00 in0.0 mm
03:18 AM 54.1°F12.3°C 49.4°F9.7°C 84% 5.0 mph E8.0 kmh E 20.0 mph32.2 kmh 29.60 in1002.4 mb 0.00 in0.0 mm 0.00 in/hr0.0 mm/hr 0.00 in0.0 mm
03:17 AM 54.1°F12.3°C 49.4°F9.7°C 84% 5.0 mph E8.0 kmh E 20.0 mph32.2 kmh 29.60 in1002.4 mb 0.00 in0.0 mm 0.00 in/hr0.0 mm/hr 0.00 in0.0 mm
03:16 AM 54.1°F12.3°C 49.4°F9.7°C 84% 3.0 mph ESE4.8 kmh ESE 20.0 mph32.2 kmh 29.60 in1002.4 mb 0.00 in0.0 mm 0.00 in/hr0.0 mm/hr 0.00 in0.0 mm
03:15 AM 54.1°F12.3°C 49.4°F9.7°C 84% 4.0 mph ESE6.4 kmh ESE 20.0 mph32.2 kmh 29.60 in1002.4 mb 0.00 in0.0 mm 0.00 in/hr0.0 mm/hr 0.00 in0.0 mm
03:14 AM 54.1°F12.3°C 49.4°F9.7°C 84% 12.0 mph SE19.3 kmh SE 20.0 mph32.2 kmh 29.60 in1002.4 mb 0.00 in0.0 mm 0.00 in/hr0.0 mm/hr 0.00 in0.0 mm
03:13 AM 54.2°F12.3°C 49.5°F9.7°C 84% 6.0 mph ESE9.7 kmh ESE 20.0 mph32.2 kmh 29.60 in1002.4 mb 0.00 in0.0 mm 0.00 in/hr0.0 mm/hr 0.00 in0.0 mm
03:12 AM 54.1°F12.3°C 49.4°F9.7°C 84% 9.0 mph SSE14.5 kmh SSE 20.0 mph32.2 kmh 29.60 in1002.4 mb 0.00 in0.0 mm 0.00 in/hr0.0 mm/hr 0.00 in0.0 mm
03:11 AM 54.2°F12.3°C 49.5°F9.7°C 84% 7.0 mph E11.3 kmh E 20.0 mph32.2 kmh 29.60 in1002.4 mb 0.00 in0.0 mm 0.00 in/hr0.0 mm/hr 0.00 in0.0 mm
03:10 AM 54.2°F12.3°C 49.5°F9.7°C 84% 5.0 mph SE8.0 kmh SE 20.0 mph32.2 kmh 29.60 in1002.4 mb 0.00 in0.0 mm 0.00 in/hr0.0 mm/hr 0.00 in0.0 mm
03:09 AM 54.3°F12.4°C 49.6°F9.8°C 84% 6.0 mph ENE9.7 kmh ENE 20.0 mph32.2 kmh 29.60 in1002.4 mb 0.00 in0.0 mm 0.00 in/hr0.0 mm/hr 0.00 in0.0 mm
03:08 AM 54.3°F12.4°C 49.6°F9.8°C 84% 9.0 mph SE14.5 kmh SE 20.0 mph32.2 kmh 29.60 in1002.4 mb 0.00 in0.0 mm 0.00 in/hr0.0 mm/hr 0.00 in0.0 mm
03:07 AM 54.3°F12.4°C 49.6°F9.8°C 84% 8.0 mph SE12.9 kmh SE 20.0 mph32.2 kmh 29.60 in1002.4 mb 0.00 in0.0 mm 0.00 in/hr0.0 mm/hr 0.00 in0.0 mm
03:06 AM 54.3°F12.4°C 49.6°F9.8°C 84% 10.0 mph SE16.1 kmh SE 20.0 mph32.2 kmh 29.60 in1002.4 mb 0.00 in0.0 mm 0.00 in/hr0.0 mm/hr 0.00 in0.0 mm
03:05 AM 54.3°F12.4°C 49.3°F9.6°C 83% 8.0 mph ESE12.9 kmh ESE 19.0 mph30.6 kmh 29.61 in1002.7 mb 0.00 in0.0 mm 0.00 in/hr0.0 mm/hr 0.00 in0.0 mm
03:04 AM 54.3°F12.4°C 49.6°F9.8°C 84% 10.0 mph SE16.1 kmh SE 19.0 mph30.6 kmh 29.60 in1002.4 mb 0.00 in0.0 mm 0.00 in/hr0.0 mm/hr 0.00 in0.0 mm
03:03 AM 54.4°F12.4°C 49.7°F9.8°C 84% 4.0 mph SE6.4 kmh SE 15.0 mph24.1 kmh 29.60 in1002.4 mb 0.00 in0.0 mm 0.00 in/hr0.0 mm/hr 0.00 in0.0 mm
03:02 AM 54.3°F12.4°C 49.3°F9.6°C 83% 11.0 mph SE17.7 kmh SE 15.0 mph24.1 kmh 29.60 in1002.4 mb 0.00 in0.0 mm 0.00 in/hr0.0 mm/hr 0.00 in0.0 mm
03:01 AM 54.2°F12.3°C 49.5°F9.7°C 84% 8.0 mph SE12.9 kmh SE 27.0 mph43.5 kmh 29.60 in1002.4 mb 0.00 in0.0 mm 0.00 in/hr0.0 mm/hr 0.00 in0.0 mm
03:00 AM 54.3°F12.4°C 49.6°F9.8°C 84% 15.0 mph SE24.1 kmh SE 27.0 mph43.5 kmh 29.59 in1002.0 mb 0.00 in0.0 mm 0.00 in/hr0.0 mm/hr 0.00 in0.0 mm
02:59 AM 54.3°F12.4°C 49.6°F9.8°C 84% 10.0 mph SE16.1 kmh SE 27.0 mph43.5 kmh 29.60 in1002.4 mb 0.00 in0.0 mm 0.00 in/hr0.0 mm/hr 0.00 in0.0 mm
02:58 AM 54.3°F12.4°C 49.6°F9.8°C 84% 8.0 mph ESE12.9 kmh ESE 27.0 mph43.5 kmh 29.60 in1002.4 mb 0.00 in0.0 mm 0.00 in/hr0.0 mm/hr 0.00 in0.0 mm
02:57 AM 54.3°F12.4°C 49.6°F9.8°C 84% 12.0 mph E19.3 kmh E 27.0 mph43.5 kmh 29.60 in1002.4 mb 0.00 in0.0 mm 0.00 in/hr0.0 mm/hr 0.00 in0.0 mm
02:56 AM 54.3°F12.4°C 49.6°F9.8°C 84% 7.0 mph E11.3 kmh E 27.0 mph43.5 kmh 29.60 in1002.4 mb 0.00 in0.0 mm 0.00 in/hr0.0 mm/hr 0.00 in0.0 mm
02:55 AM 54.3°F12.4°C 49.6°F9.8°C 84% 10.0 mph SE16.1 kmh SE 27.0 mph43.5 kmh 29.60 in1002.4 mb 0.00 in0.0 mm 0.00 in/hr0.0 mm/hr 0.00 in0.0 mm
02:54 AM 54.3°F12.4°C 49.6°F9.8°C 84% 11.0 mph ESE17.7 kmh ESE 27.0 mph43.5 kmh 29.60 in1002.4 mb 0.00 in0.0 mm 0.00 in/hr0.0 mm/hr 0.00 in0.0 mm
02:53 AM 54.3°F12.4°C 49.6°F9.8°C 84% 7.0 mph E11.3 kmh E 27.0 mph43.5 kmh 29.60 in1002.4 mb 0.00 in0.0 mm 0.00 in/hr0.0 mm/hr 0.00 in0.0 mm
02:52 AM 54.3°F12.4°C 49.6°F9.8°C 84% 7.0 mph ESE11.3 kmh ESE 27.0 mph43.5 kmh 29.59 in1002.0 mb 0.00 in0.0 mm 0.00 in/hr0.0 mm/hr 0.00 in0.0 mm
02:51 AM 54.3°F12.4°C 49.6°F9.8°C 84% 11.0 mph SSE17.7 kmh SSE 27.0 mph43.5 kmh 29.60 in1002.4 mb 0.00 in0.0 mm 0.00 in/hr0.0 mm/hr 0.00 in0.0 mm
02:50 AM 54.3°F12.4°C 49.6°F9.8°C 84% 9.0 mph ESE14.5 kmh ESE 27.0 mph43.5 kmh 29.59 in1002.0 mb 0.00 in0.0 mm 0.00 in/hr0.0 mm/hr 0.00 in0.0 mm
02:49 AM 54.3°F12.4°C 49.6°F9.8°C 84% 10.0 mph ESE16.1 kmh ESE 27.0 mph43.5 kmh 29.59 in1002.0 mb 0.00 in0.0 mm 0.00 in/hr0.0 mm/hr 0.00 in0.0 mm
02:48 AM 54.3°F12.4°C 49.6°F9.8°C 84% 18.0 mph E29.0 kmh E 27.0 mph43.5 kmh 29.59 in1002.0 mb 0.00 in0.0 mm 0.00 in/hr0.0 mm/hr 0.00 in0.0 mm
02:47 AM 54.4°F12.4°C 49.7°F9.8°C 84% 8.0 mph SE12.9 kmh SE 27.0 mph43.5 kmh 29.59 in1002.0 mb 0.00 in0.0 mm 0.00 in/hr0.0 mm/hr 0.00 in0.0 mm
02:46 AM 54.3°F12.4°C 49.6°F9.8°C 84% 14.0 mph ESE22.5 kmh ESE 27.0 mph43.5 kmh 29.59 in1002.0 mb 0.00 in0.0 mm 0.00 in/hr0.0 mm/hr 0.00 in0.0 mm
02:45 AM 54.3°F12.4°C 49.6°F9.8°C 84% 17.0 mph ESE27.4 kmh ESE 27.0 mph43.5 kmh 29.59 in1002.0 mb 0.00 in0.0 mm 0.00 in/hr0.0 mm/hr 0.00 in0.0 mm
02:44 AM 54.3°F12.4°C 49.6°F9.8°C 84% 11.0 mph ESE17.7 kmh ESE 27.0 mph43.5 kmh 29.59 in1002.0 mb 0.00 in0.0 mm 0.00 in/hr0.0 mm/hr 0.00 in0.0 mm
02:43 AM 54.4°F12.4°C 49.7°F9.8°C 84% 13.0 mph ESE20.9 kmh ESE 27.0 mph43.5 kmh 29.59 in1002.0 mb 0.00 in0.0 mm 0.00 in/hr0.0 mm/hr 0.00 in0.0 mm
02:42 AM 54.3°F12.4°C 49.6°F9.8°C 84% 20.0 mph E32.2 kmh E 27.0 mph43.5 kmh 29.59 in1002.0 mb 0.00 in0.0 mm 0.00 in/hr0.0 mm/hr 0.00 in0.0 mm
02:41 AM 54.3°F12.4°C 49.6°F9.8°C 84% 24.0 mph SE38.6 kmh SE 24.0 mph38.6 kmh 29.59 in1002.0 mb 0.00 in0.0 mm 0.00 in/hr0.0 mm/hr 0.00 in0.0 mm
02:40 AM 54.2°F12.3°C 49.5°F9.7°C 84% 10.0 mph SE16.1 kmh SE 23.0 mph37.0 kmh 29.59 in1002.0 mb 0.00 in0.0 mm 0.00 in/hr0.0 mm/hr 0.00 in0.0 mm
02:39 AM 54.2°F12.3°C 49.8°F9.9°C 85% 23.0 mph SE37.0 kmh SE 23.0 mph37.0 kmh 29.59 in1002.0 mb 0.00 in0.0 mm 0.00 in/hr0.0 mm/hr 0.00 in0.0 mm
02:38 AM 54.2°F12.3°C 49.8°F9.9°C 85% 15.0 mph ESE24.1 kmh ESE 23.0 mph37.0 kmh 29.59 in1002.0 mb 0.00 in0.0 mm 0.00 in/hr0.0 mm/hr 0.00 in0.0 mm
02:37 AM 54.2°F12.3°C 49.8°F9.9°C 85% 22.0 mph E35.4 kmh E 23.0 mph37.0 kmh 29.59 in1002.0 mb 0.00 in0.0 mm 0.00 in/hr0.0 mm/hr 0.00 in0.0 mm
02:36 AM 54.1°F12.3°C 49.7°F9.8°C 85% 23.0 mph E37.0 kmh E 23.0 mph37.0 kmh 29.59 in1002.0 mb 0.00 in0.0 mm 0.00 in/hr0.0 mm/hr 0.00 in0.0 mm
02:35 AM 54.1°F12.3°C 49.7°F9.8°C 85% 9.0 mph SE14.5 kmh SE 21.0 mph33.8 kmh 29.59 in1002.0 mb 0.00 in0.0 mm 0.00 in/hr0.0 mm/hr 0.00 in0.0 mm
02:34 AM 54.1°F12.3°C 49.7°F9.8°C 85% 11.0 mph SE17.7 kmh SE 21.0 mph33.8 kmh 29.59 in1002.0 mb 0.00 in0.0 mm 0.00 in/hr0.0 mm/hr 0.00 in0.0 mm
02:33 AM 54.1°F12.3°C 50.0°F10.0°C 86% 10.0 mph SE16.1 kmh SE 21.0 mph33.8 kmh 29.59 in1002.0 mb 0.00 in0.0 mm 0.00 in/hr0.0 mm/hr 0.00 in0.0 mm
02:32 AM 54.1°F12.3°C 50.0°F10.0°C 86% 14.0 mph SE22.5 kmh SE 15.0 mph24.1 kmh 29.58 in1001.7 mb 0.00 in0.0 mm 0.00 in/hr0.0 mm/hr 0.00 in0.0 mm
02:31 AM 54.1°F12.3°C 50.0°F10.0°C 86% 13.0 mph E20.9 kmh E 36.0 mph57.9 kmh 29.59 in1002.0 mb 0.00 in0.0 mm 0.00 in/hr0.0 mm/hr 0.00 in0.0 mm
02:30 AM 54.1°F12.3°C 50.0°F10.0°C 86% 20.0 mph E32.2 kmh E 36.0 mph57.9 kmh 29.59 in1002.0 mb 0.00 in0.0 mm 0.00 in/hr0.0 mm/hr 0.00 in0.0 mm
02:29 AM 54.1°F12.3°C 50.0°F10.0°C 86% 7.0 mph S11.3 kmh S 36.0 mph57.9 kmh 29.59 in1002.0 mb 0.00 in0.0 mm 0.00 in/hr0.0 mm/hr 0.00 in0.0 mm
02:28 AM 54.1°F12.3°C 50.0°F10.0°C 86% 16.0 mph SE25.7 kmh SE 36.0 mph57.9 kmh 29.59 in1002.0 mb 0.00 in0.0 mm 0.00 in/hr0.0 mm/hr 0.00 in0.0 mm
02:27 AM 54.1°F12.3°C 50.0°F10.0°C 86% 16.0 mph ESE25.7 kmh ESE 36.0 mph57.9 kmh 29.58 in1001.7 mb 0.00 in0.0 mm 0.00 in/hr0.0 mm/hr 0.00 in0.0 mm
02:26 AM 54.1°F12.3°C 50.0°F10.0°C 86% 21.0 mph ESE33.8 kmh ESE 36.0 mph57.9 kmh 29.59 in1002.0 mb 0.00 in0.0 mm 0.00 in/hr0.0 mm/hr 0.00 in0.0 mm
02:25 AM 54.1°F12.3°C 50.0°F10.0°C 86% 23.0 mph SE37.0 kmh SE 36.0 mph57.9 kmh 29.58 in1001.7 mb 0.00 in0.0 mm 0.00 in/hr0.0 mm/hr 0.00 in0.0 mm
02:24 AM 54.1°F12.3°C 50.0°F10.0°C 86% 22.0 mph E35.4 kmh E 30.0 mph48.3 kmh 29.59 in1002.0 mb 0.00 in0.0 mm 0.00 in/hr0.0 mm/hr 0.00 in0.0 mm
02:23 AM 54.1°F12.3°C 50.0°F10.0°C 86% 21.0 mph SE33.8 kmh SE 30.0 mph48.3 kmh 29.58 in1001.7 mb 0.00 in0.0 mm 0.00 in/hr0.0 mm/hr 0.00 in0.0 mm
02:22 AM 54.1°F12.3°C 50.0°F10.0°C 86% 17.0 mph ESE27.4 kmh ESE 30.0 mph48.3 kmh 29.58 in1001.7 mb 0.00 in0.0 mm 0.00 in/hr0.0 mm/hr 0.00 in0.0 mm
02:21 AM 54.1°F12.3°C 50.0°F10.0°C 86% 5.0 mph ESE8.0 kmh ESE 30.0 mph48.3 kmh 29.58 in1001.7 mb 0.00 in0.0 mm 0.00 in/hr0.0 mm/hr 0.00 in0.0 mm
02:20 AM 54.1°F12.3°C 50.0°F10.0°C 86% 13.0 mph SE20.9 kmh SE 30.0 mph48.3 kmh 29.58 in1001.7 mb 0.00 in0.0 mm 0.00 in/hr0.0 mm/hr 0.00 in0.0 mm
02:19 AM 54.0°F12.2°C 49.9°F9.9°C 86% 12.0 mph E19.3 kmh E 30.0 mph48.3 kmh 29.58 in1001.7 mb 0.00 in0.0 mm 0.00 in/hr0.0 mm/hr 0.00 in0.0 mm
02:18 AM 53.9°F12.2°C 49.8°F9.9°C 86% 23.0 mph E37.0 kmh E 30.0 mph48.3 kmh 29.58 in1001.7 mb 0.00 in0.0 mm 0.00 in/hr0.0 mm/hr 0.00 in0.0 mm
02:17 AM 54.0°F12.2°C 50.2°F10.1°C 87% 25.0 mph E40.2 kmh E 30.0 mph48.3 kmh 29.58 in1001.7 mb 0.00 in0.0 mm 0.00 in/hr0.0 mm/hr 0.00 in0.0 mm
02:16 AM 54.0°F12.2°C 50.2°F10.1°C 87% 16.0 mph ESE25.7 kmh ESE 30.0 mph48.3 kmh 29.58 in1001.7 mb 0.00 in0.0 mm 0.00 in/hr0.0 mm/hr 0.00 in0.0 mm
02:15 AM 54.0°F12.2°C 50.2°F10.1°C 87% 22.0 mph SW35.4 kmh SW 30.0 mph48.3 kmh 29.58 in1001.7 mb 0.00 in0.0 mm 0.00 in/hr0.0 mm/hr 0.00 in0.0 mm
02:14 AM 54.0°F12.2°C 49.9°F9.9°C 86% 14.0 mph ENE22.5 kmh ENE 30.0 mph48.3 kmh 29.58 in1001.7 mb 0.00 in0.0 mm 0.00 in/hr0.0 mm/hr 0.00 in0.0 mm
02:13 AM 54.0°F12.2°C 49.9°F9.9°C 86% 12.0 mph E19.3 kmh E 30.0 mph48.3 kmh 29.58 in1001.7 mb 0.00 in0.0 mm 0.00 in/hr0.0 mm/hr 0.00 in0.0 mm
02:12 AM 54.0°F12.2°C 49.9°F9.9°C 86% 11.0 mph SE17.7 kmh SE 30.0 mph48.3 kmh 29.58 in1001.7 mb 0.00 in0.0 mm 0.00 in/hr0.0 mm/hr 0.00 in0.0 mm
02:11 AM 54.1°F12.3°C 50.0°F10.0°C 86% 10.0 mph E16.1 kmh E 30.0 mph48.3 kmh 29.58 in1001.7 mb 0.00 in0.0 mm 0.00 in/hr0.0 mm/hr 0.00 in0.0 mm
02:10 AM 54.1°F12.3°C 50.0°F10.0°C 86% 14.0 mph ESE22.5 kmh ESE 30.0 mph48.3 kmh 29.57 in1001.4 mb 0.00 in0.0 mm 0.00 in/hr0.0 mm/hr 0.00 in0.0 mm
02:09 AM 54.2°F12.3°C 50.1°F10.1°C 86% 8.0 mph NE12.9 kmh NE 30.0 mph48.3 kmh 29.58 in1001.7 mb 0.00 in0.0 mm 0.00 in/hr0.0 mm/hr 0.00 in0.0 mm
02:08 AM 54.2°F12.3°C 50.1°F10.1°C 86% 14.0 mph E22.5 kmh E 30.0 mph48.3 kmh 29.58 in1001.7 mb 0.00 in0.0 mm 0.00 in/hr0.0 mm/hr 0.00 in0.0 mm
02:07 AM 54.1°F12.3°C 50.0°F10.0°C 86% 25.0 mph SE40.2 kmh SE 30.0 mph48.3 kmh 29.58 in1001.7 mb 0.00 in0.0 mm 0.00 in/hr0.0 mm/hr 0.00 in0.0 mm
02:06 AM 54.1°F12.3°C 50.0°F10.0°C 86% 17.0 mph SE27.4 kmh SE 29.0 mph46.7 kmh 29.58 in1001.7 mb 0.00 in0.0 mm 0.00 in/hr0.0 mm/hr 0.00 in0.0 mm
02:05 AM 54.1°F12.3°C 50.0°F10.0°C 86% 15.0 mph SE24.1 kmh SE 29.0 mph46.7 kmh 29.58 in1001.7 mb 0.00 in0.0 mm 0.00 in/hr0.0 mm/hr 0.00 in0.0 mm
02:04 AM 54.0°F12.2°C 50.2°F10.1°C 87% 20.0 mph SE32.2 kmh SE 29.0 mph46.7 kmh 29.58 in1001.7 mb 0.00 in0.0 mm 0.00 in/hr0.0 mm/hr 0.00 in0.0 mm
02:03 AM 54.0°F12.2°C 50.2°F10.1°C 87% 20.0 mph ESE32.2 kmh ESE 29.0 mph46.7 kmh 29.58 in1001.7 mb 0.00 in0.0 mm 0.00 in/hr0.0 mm/hr 0.00 in0.0 mm
02:02 AM 54.0°F12.2°C 50.2°F10.1°C 87% 24.0 mph ESE38.6 kmh ESE 29.0 mph46.7 kmh 29.58 in1001.7 mb 0.00 in0.0 mm 0.00 in/hr0.0 mm/hr 0.00 in0.0 mm
02:01 AM 54.1°F12.3°C 50.3°F10.2°C 87% 16.0 mph SE25.7 kmh SE 34.0 mph54.7 kmh 29.58 in1001.7 mb 0.00 in0.0 mm 0.00 in/hr0.0 mm/hr 0.00 in0.0 mm
02:00 AM 54.1°F12.3°C 50.3°F10.2°C 87% 12.0 mph SE19.3 kmh SE 34.0 mph54.7 kmh 29.58 in1001.7 mb 0.00 in0.0 mm 0.00 in/hr0.0 mm/hr 0.00 in0.0 mm
01:59 AM 54.2°F12.3°C 50.1°F10.1°C 86% 13.0 mph SE20.9 kmh SE 34.0 mph54.7 kmh 29.58 in1001.7 mb 0.00 in0.0 mm 0.00 in/hr0.0 mm/hr 0.00 in0.0 mm
01:58 AM 54.2°F12.3°C 50.1°F10.1°C 86% 25.0 mph SE40.2 kmh SE 34.0 mph54.7 kmh 29.58 in1001.7 mb 0.00 in0.0 mm 0.00 in/hr0.0 mm/hr 0.00 in0.0 mm
01:57 AM 54.2°F12.3°C 50.1°F10.1°C 86% 31.0 mph E49.9 kmh E 31.0 mph49.9 kmh 29.58 in1001.7 mb 0.00 in0.0 mm 0.00 in/hr0.0 mm/hr 0.00 in0.0 mm
01:56 AM 54.1°F12.3°C 50.0°F10.0°C 86% 17.0 mph ESE27.4 kmh ESE 31.0 mph49.9 kmh 29.58 in1001.7 mb 0.00 in0.0 mm 0.00 in/hr0.0 mm/hr 0.00 in0.0 mm
01:55 AM 54.1°F12.3°C 50.0°F10.0°C 86% 14.0 mph SE22.5 kmh SE 31.0 mph49.9 kmh 29.58 in1001.7 mb 0.00 in0.0 mm 0.00 in/hr0.0 mm/hr 0.00 in0.0 mm
01:54 AM 54.1°F12.3°C 50.3°F10.2°C 87% 19.0 mph SE30.6 kmh SE 31.0 mph49.9 kmh 29.59 in1002.0 mb 0.00 in0.0 mm 0.00 in/hr0.0 mm/hr 0.00 in0.0 mm
01:53 AM 54.1°F12.3°C 50.3°F10.2°C 87% 7.0 mph E11.3 kmh E 31.0 mph49.9 kmh 29.59 in1002.0 mb 0.00 in0.0 mm 0.00 in/hr0.0 mm/hr 0.00 in0.0 mm
01:52 AM 54.1°F12.3°C 50.0°F10.0°C 86% 7.0 mph SE11.3 kmh SE 31.0 mph49.9 kmh 29.59 in1002.0 mb 0.00 in0.0 mm 0.00 in/hr0.0 mm/hr 0.00 in0.0 mm
01:51 AM 54.1°F12.3°C 50.3°F10.2°C 87% 13.0 mph E20.9 kmh E 31.0 mph49.9 kmh 29.59 in1002.0 mb 0.00 in0.0 mm 0.00 in/hr0.0 mm/hr 0.00 in0.0 mm
01:50 AM 54.1°F12.3°C 50.3°F10.2°C 87% 12.0 mph SSE19.3 kmh SSE 31.0 mph49.9 kmh 29.58 in1001.7 mb 0.00 in0.0 mm 0.00 in/hr0.0 mm/hr 0.00 in0.0 mm
01:49 AM 54.1°F12.3°C 50.3°F10.2°C 87% 12.0 mph S19.3 kmh S 31.0 mph49.9 kmh 29.59 in1002.0 mb 0.00 in0.0 mm 0.00 in/hr0.0 mm/hr 0.00 in0.0 mm
01:48 AM 54.1°F12.3°C 50.3°F10.2°C 87% 12.0 mph E19.3 kmh E 31.0 mph49.9 kmh 29.58 in1001.7 mb 0.00 in0.0 mm 0.00 in/hr0.0 mm/hr 0.00 in0.0 mm
01:47 AM 54.1°F12.3°C 50.3°F10.2°C 87% 16.0 mph SE25.7 kmh SE 31.0 mph49.9 kmh 29.58 in1001.7 mb 0.00 in0.0 mm 0.00 in/hr0.0 mm/hr 0.00 in0.0 mm
01:46 AM 54.2°F12.3°C 50.1°F10.1°C 86% 16.0 mph ESE25.7 kmh ESE 31.0 mph49.9 kmh 29.58 in1001.7 mb 0.00 in0.0 mm 0.00 in/hr0.0 mm/hr 0.00 in0.0 mm
01:45 AM 54.1°F12.3°C 50.3°F10.2°C 87% 15.0 mph SE24.1 kmh SE 31.0 mph49.9 kmh 29.58 in1001.7 mb 0.00 in0.0 mm 0.00 in/hr0.0 mm/hr 0.00 in0.0 mm
01:44 AM 54.1°F12.3°C 50.3°F10.2°C 87% 16.0 mph SE25.7 kmh SE 31.0 mph49.9 kmh 29.58 in1001.7 mb 0.00 in0.0 mm 0.00 in/hr0.0 mm/hr 0.00 in0.0 mm
01:43 AM 54.1°F12.3°C 50.3°F10.2°C 87% 24.0 mph SE38.6 kmh SE 31.0 mph49.9 kmh 29.58 in1001.7 mb 0.00 in0.0 mm 0.00 in/hr0.0 mm/hr 0.00 in0.0 mm
01:42 AM 54.1°F12.3°C 50.3°F10.2°C 87% 21.0 mph E33.8 kmh E 31.0 mph49.9 kmh 29.59 in1002.0 mb 0.00 in0.0 mm 0.00 in/hr0.0 mm/hr 0.00 in0.0 mm
01:41 AM 54.1°F12.3°C 50.3°F10.2°C 87% 11.0 mph SE17.7 kmh SE 31.0 mph49.9 kmh 29.58 in1001.7 mb 0.00 in0.0 mm 0.00 in/hr0.0 mm/hr 0.00 in0.0 mm
01:40 AM 54.2°F12.3°C 50.4°F10.2°C 87% 5.0 mph SSE8.0 kmh SSE 31.0 mph49.9 kmh 29.59 in1002.0 mb 0.00 in0.0 mm 0.00 in/hr0.0 mm/hr 0.00 in0.0 mm
01:39 AM 54.1°F12.3°C 50.0°F10.0°C 86% 23.0 mph ESE37.0 kmh ESE 31.0 mph49.9 kmh 29.58 in1001.7 mb 0.00 in0.0 mm 0.00 in/hr0.0 mm/hr 0.00 in0.0 mm
01:38 AM 54.1°F12.3°C 50.0°F10.0°C 86% 19.0 mph E30.6 kmh E 30.0 mph48.3 kmh 29.58 in1001.7 mb 0.00 in0.0 mm 0.00 in/hr0.0 mm/hr 0.00 in0.0 mm
01:37 AM 54.1°F12.3°C 50.3°F10.2°C 87% 24.0 mph E38.6 kmh E 30.0 mph48.3 kmh 29.58 in1001.7 mb 0.00 in0.0 mm 0.00 in/hr0.0 mm/hr 0.00 in0.0 mm
01:36 AM 54.1°F12.3°C 50.3°F10.2°C 87% 28.0 mph E45.1 kmh E 30.0 mph48.3 kmh 29.58 in1001.7 mb 0.00 in0.0 mm 0.00 in/hr0.0 mm/hr 0.00 in0.0 mm
01:34 AM 54.1°F12.3°C 50.3°F10.2°C 87% 12.0 mph ESE19.3 kmh ESE 26.0 mph41.8 kmh 29.58 in1001.7 mb 0.00 in0.0 mm 0.00 in/hr0.0 mm/hr 0.00 in0.0 mm
01:33 AM 54.1°F12.3°C 50.0°F10.0°C 86% 9.0 mph NNW14.5 kmh NNW 17.0 mph27.4 kmh 29.58 in1001.7 mb 0.00 in0.0 mm 0.00 in/hr0.0 mm/hr 0.00 in0.0 mm
01:32 AM 54.2°F12.3°C 50.1°F10.1°C 86% 12.0 mph SE19.3 kmh SE 15.0 mph24.1 kmh 29.58 in1001.7 mb 0.00 in0.0 mm 0.00 in/hr0.0 mm/hr 0.00 in0.0 mm
01:31 AM 54.1°F12.3°C 50.0°F10.0°C 86% 14.0 mph S22.5 kmh S 30.0 mph48.3 kmh 29.58 in1001.7 mb 0.00 in0.0 mm 0.00 in/hr0.0 mm/hr 0.00 in0.0 mm
01:30 AM 54.2°F12.3°C 50.1°F10.1°C 86% 11.0 mph SE17.7 kmh SE 30.0 mph48.3 kmh 29.58 in1001.7 mb 0.00 in0.0 mm 0.00 in/hr0.0 mm/hr 0.00 in0.0 mm
01:29 AM 54.2°F12.3°C 50.1°F10.1°C 86% 21.0 mph SE33.8 kmh SE 30.0 mph48.3 kmh 29.58 in1001.7 mb 0.00 in0.0 mm 0.00 in/hr0.0 mm/hr 0.00 in0.0 mm
01:28 AM 54.2°F12.3°C 50.1°F10.1°C 86% 13.0 mph E20.9 kmh E 30.0 mph48.3 kmh 29.58 in1001.7 mb 0.00 in0.0 mm 0.00 in/hr0.0 mm/hr 0.00 in0.0 mm
01:27 AM 54.2°F12.3°C 50.1°F10.1°C 86% 18.0 mph SE29.0 kmh SE 30.0 mph48.3 kmh 29.58 in1001.7 mb 0.00 in0.0 mm 0.00 in/hr0.0 mm/hr 0.00 in0.0 mm
01:26 AM 54.2°F12.3°C 50.1°F10.1°C 86% 19.0 mph ESE30.6 kmh ESE 30.0 mph48.3 kmh 29.58 in1001.7 mb 0.00 in0.0 mm 0.00 in/hr0.0 mm/hr 0.00 in0.0 mm
01:25 AM 54.2°F12.3°C 50.1°F10.1°C 86% 12.0 mph S19.3 kmh S 30.0 mph48.3 kmh 29.58 in1001.7 mb 0.00 in0.0 mm 0.00 in/hr0.0 mm/hr 0.00 in0.0 mm
01:24 AM 54.2°F12.3°C 50.1°F10.1°C 86% 6.0 mph E9.7 kmh E 30.0 mph48.3 kmh 29.58 in1001.7 mb 0.00 in0.0 mm 0.00 in/hr0.0 mm/hr 0.00 in0.0 mm
01:23 AM 54.1°F12.3°C 50.0°F10.0°C 86% 19.0 mph E30.6 kmh E 30.0 mph48.3 kmh 29.58 in1001.7 mb 0.00 in0.0 mm 0.00 in/hr0.0 mm/hr 0.00 in0.0 mm
01:22 AM 54.1°F12.3°C 50.3°F10.2°C 87% 8.0 mph SE12.9 kmh SE 30.0 mph48.3 kmh 29.58 in1001.7 mb 0.00 in0.0 mm 0.00 in/hr0.0 mm/hr 0.00 in0.0 mm
01:21 AM 54.1°F12.3°C 50.3°F10.2°C 87% 19.0 mph E30.6 kmh E 30.0 mph48.3 kmh 29.58 in1001.7 mb 0.00 in0.0 mm 0.00 in/hr0.0 mm/hr 0.00 in0.0 mm
01:20 AM 54.1°F12.3°C 50.3°F10.2°C 87% 23.0 mph E37.0 kmh E 30.0 mph48.3 kmh 29.59 in1002.0 mb 0.00 in0.0 mm 0.00 in/hr0.0 mm/hr 0.00 in0.0 mm
01:19 AM 54.1°F12.3°C 50.3°F10.2°C 87% 7.0 mph ESE11.3 kmh ESE 30.0 mph48.3 kmh 29.58 in1001.7 mb 0.00 in0.0 mm 0.00 in/hr0.0 mm/hr 0.00 in0.0 mm
01:18 AM 54.0°F12.2°C 50.2°F10.1°C 87% 17.0 mph ESE27.4 kmh ESE 30.0 mph48.3 kmh 29.58 in1001.7 mb 0.00 in0.0 mm 0.00 in/hr0.0 mm/hr 0.00 in0.0 mm
01:17 AM 54.0°F12.2°C 50.2°F10.1°C 87% 16.0 mph ESE25.7 kmh ESE 30.0 mph48.3 kmh 29.58 in1001.7 mb 0.00 in0.0 mm 0.00 in/hr0.0 mm/hr 0.00 in0.0 mm
01:16 AM 54.0°F12.2°C 50.2°F10.1°C 87% 4.0 mph SE6.4 kmh SE 30.0 mph48.3 kmh 29.58 in1001.7 mb 0.00 in0.0 mm 0.00 in/hr0.0 mm/hr 0.00 in0.0 mm
01:15 AM 54.1°F12.3°C 50.3°F10.2°C 87% 6.0 mph SE9.7 kmh SE 30.0 mph48.3 kmh 29.58 in1001.7 mb 0.00 in0.0 mm 0.00 in/hr0.0 mm/hr 0.00 in0.0 mm
01:14 AM 54.1°F12.3°C 50.3°F10.2°C 87% 10.0 mph S16.1 kmh S 30.0 mph48.3 kmh 29.58 in1001.7 mb 0.00 in0.0 mm 0.00 in/hr0.0 mm/hr 0.00 in0.0 mm
01:13 AM 54.0°F12.2°C 50.2°F10.1°C 87% 12.0 mph SE19.3 kmh SE 30.0 mph48.3 kmh 29.58 in1001.7 mb 0.00 in0.0 mm 0.00 in/hr0.0 mm/hr 0.00 in0.0 mm
01:12 AM 54.1°F12.3°C 50.3°F10.2°C 87% 14.0 mph SE22.5 kmh SE 30.0 mph48.3 kmh 29.58 in1001.7 mb 0.00 in0.0 mm 0.00 in/hr0.0 mm/hr 0.00 in0.0 mm
01:11 AM 54.1°F12.3°C 50.3°F10.2°C 87% 16.0 mph SE25.7 kmh SE 30.0 mph48.3 kmh 29.58 in1001.7 mb 0.00 in0.0 mm 0.00 in/hr0.0 mm/hr 0.00 in0.0 mm
01:10 AM 54.0°F12.2°C 50.2°F10.1°C 87% 11.0 mph SE17.7 kmh SE 30.0 mph48.3 kmh 29.59 in1002.0 mb 0.00 in0.0 mm 0.00 in/hr0.0 mm/hr 0.00 in0.0 mm
01:09 AM 54.0°F12.2°C 50.2°F10.1°C 87% 18.0 mph SE29.0 kmh SE 30.0 mph48.3 kmh 29.58 in1001.7 mb 0.00 in0.0 mm 0.00 in/hr0.0 mm/hr 0.00 in0.0 mm
01:08 AM 53.9°F12.2°C 50.1°F10.1°C 87% 13.0 mph SE20.9 kmh SE 30.0 mph48.3 kmh 29.58 in1001.7 mb 0.00 in0.0 mm 0.00 in/hr0.0 mm/hr 0.00 in0.0 mm
01:07 AM 53.9°F12.2°C 50.4°F10.2°C 88% 12.0 mph SSE19.3 kmh SSE 24.0 mph38.6 kmh 29.58 in1001.7 mb 0.00 in0.0 mm 0.00 in/hr0.0 mm/hr 0.00 in0.0 mm
01:06 AM 53.9°F12.2°C 50.4°F10.2°C 88% 22.0 mph SE35.4 kmh SE 22.0 mph35.4 kmh 29.58 in1001.7 mb 0.00 in0.0 mm 0.00 in/hr0.0 mm/hr 0.00 in0.0 mm
01:05 AM 53.9°F12.2°C 50.4°F10.2°C 88% 12.0 mph ENE19.3 kmh ENE 21.0 mph33.8 kmh 29.59 in1002.0 mb 0.00 in0.0 mm 0.00 in/hr0.0 mm/hr 0.00 in0.0 mm
01:04 AM 53.9°F12.2°C 50.4°F10.2°C 88% 16.0 mph E25.7 kmh E 19.0 mph30.6 kmh 29.59 in1002.0 mb 0.00 in0.0 mm 0.00 in/hr0.0 mm/hr 0.00 in0.0 mm
01:03 AM 53.9°F12.2°C 50.4°F10.2°C 88% 10.0 mph E16.1 kmh E 17.0 mph27.4 kmh 29.59 in1002.0 mb 0.00 in0.0 mm 0.00 in/hr0.0 mm/hr 0.00 in0.0 mm
01:02 AM 53.9°F12.2°C 50.4°F10.2°C 88% 15.0 mph SE24.1 kmh SE 17.0 mph27.4 kmh 29.59 in1002.0 mb 0.00 in0.0 mm 0.00 in/hr0.0 mm/hr 0.00 in0.0 mm
01:01 AM 53.9°F12.2°C 50.4°F10.2°C 88% 13.0 mph SE20.9 kmh SE 29.0 mph46.7 kmh 29.59 in1002.0 mb 0.00 in0.0 mm 0.00 in/hr0.0 mm/hr 0.00 in0.0 mm
01:00 AM 53.9°F12.2°C 50.4°F10.2°C 88% 9.0 mph SE14.5 kmh SE 29.0 mph46.7 kmh 29.59 in1002.0 mb 0.00 in0.0 mm 0.00 in/hr0.0 mm/hr 0.00 in0.0 mm
12:59 AM 53.8°F12.1°C 50.3°F10.2°C 88% 15.0 mph E24.1 kmh E 29.0 mph46.7 kmh 29.59 in1002.0 mb 0.00 in0.0 mm 0.00 in/hr0.0 mm/hr 0.00 in0.0 mm
12:58 AM 53.9°F12.2°C 50.4°F10.2°C 88% 7.0 mph E11.3 kmh E 29.0 mph46.7 kmh 29.59 in1002.0 mb 0.00 in0.0 mm 0.00 in/hr0.0 mm/hr 0.00 in0.0 mm
12:57 AM 53.9°F12.2°C 50.4°F10.2°C 88% 13.0 mph E20.9 kmh E 29.0 mph46.7 kmh 29.58 in1001.7 mb 0.00 in0.0 mm 0.00 in/hr0.0 mm/hr 0.00 in0.0 mm
12:56 AM 53.9°F12.2°C 50.4°F10.2°C 88% 17.0 mph ESE27.4 kmh ESE 29.0 mph46.7 kmh 29.59 in1002.0 mb 0.00 in0.0 mm 0.00 in/hr0.0 mm/hr 0.00 in0.0 mm
12:55 AM 53.8°F12.1°C 50.3°F10.2°C 88% 7.0 mph ENE11.3 kmh ENE 29.0 mph46.7 kmh 29.59 in1002.0 mb 0.00 in0.0 mm 0.00 in/hr0.0 mm/hr 0.00 in0.0 mm
12:54 AM 53.8°F12.1°C 50.3°F10.2°C 88% 19.0 mph E30.6 kmh E 29.0 mph46.7 kmh 29.58 in1001.7 mb 0.00 in0.0 mm 0.00 in/hr0.0 mm/hr 0.00 in0.0 mm
12:53 AM 53.9°F12.2°C 50.4°F10.2°C 88% 18.0 mph E29.0 kmh E 29.0 mph46.7 kmh 29.59 in1002.0 mb 0.00 in0.0 mm 0.00 in/hr0.0 mm/hr 0.00 in0.0 mm
12:52 AM 53.8°F12.1°C 50.3°F10.2°C 88% 7.0 mph NNE11.3 kmh NNE 29.0 mph46.7 kmh 29.59 in1002.0 mb 0.00 in0.0 mm 0.00 in/hr0.0 mm/hr 0.00 in0.0 mm
12:51 AM 53.8°F12.1°C 50.3°F10.2°C 88% 23.0 mph ESE37.0 kmh ESE 29.0 mph46.7 kmh 29.58 in1001.7 mb 0.00 in0.0 mm 0.00 in/hr0.0 mm/hr 0.00 in0.0 mm
12:50 AM 53.8°F12.1°C 50.3°F10.2°C 88% 13.0 mph E20.9 kmh E 29.0 mph46.7 kmh 29.59 in1002.0 mb 0.00 in0.0 mm 0.00 in/hr0.0 mm/hr 0.00 in0.0 mm
12:49 AM 53.8°F12.1°C 50.3°F10.2°C 88% 17.0 mph ESE27.4 kmh ESE 29.0 mph46.7 kmh 29.58 in1001.7 mb 0.00 in0.0 mm 0.00 in/hr0.0 mm/hr 0.00 in0.0 mm
12:48 AM 53.8°F12.1°C 50.3°F10.2°C 88% 6.0 mph E9.7 kmh E 29.0 mph46.7 kmh 29.59 in1002.0 mb 0.00 in0.0 mm 0.00 in/hr0.0 mm/hr 0.00 in0.0 mm
12:47 AM 53.8°F12.1°C 50.3°F10.2°C 88% 11.0 mph E17.7 kmh E 29.0 mph46.7 kmh 29.59 in1002.0 mb 0.00 in0.0 mm 0.00 in/hr0.0 mm/hr 0.00 in0.0 mm
12:46 AM 53.8°F12.1°C 50.3°F10.2°C 88% 11.0 mph E17.7 kmh E 29.0 mph46.7 kmh 29.59 in1002.0 mb 0.00 in0.0 mm 0.00 in/hr0.0 mm/hr 0.00 in0.0 mm
12:45 AM 53.8°F12.1°C 50.3°F10.2°C 88% 7.0 mph E11.3 kmh E 27.0 mph43.5 kmh 29.59 in1002.0 mb 0.00 in0.0 mm 0.00 in/hr0.0 mm/hr 0.00 in0.0 mm
12:44 AM 53.8°F12.1°C 50.3°F10.2°C 88% 13.0 mph E20.9 kmh E 27.0 mph43.5 kmh 29.59 in1002.0 mb 0.00 in0.0 mm 0.00 in/hr0.0 mm/hr 0.00 in0.0 mm
12:43 AM 53.8°F12.1°C 50.3°F10.2°C 88% 12.0 mph SE19.3 kmh SE 27.0 mph43.5 kmh 29.58 in1001.7 mb 0.00 in0.0 mm 0.00 in/hr0.0 mm/hr 0.00 in0.0 mm
12:42 AM 53.8°F12.1°C 50.3°F10.2°C 88% 23.0 mph SE37.0 kmh SE 26.0 mph41.8 kmh 29.59 in1002.0 mb 0.00 in0.0 mm 0.00 in/hr0.0 mm/hr 0.00 in0.0 mm
12:41 AM 53.8°F12.1°C 50.3°F10.2°C 88% 16.0 mph E25.7 kmh E 26.0 mph41.8 kmh 29.59 in1002.0 mb 0.00 in0.0 mm 0.00 in/hr0.0 mm/hr 0.00 in0.0 mm
12:40 AM 53.8°F12.1°C 50.3°F10.2°C 88% 17.0 mph E27.4 kmh E 26.0 mph41.8 kmh 29.59 in1002.0 mb 0.00 in0.0 mm 0.00 in/hr0.0 mm/hr 0.00 in0.0 mm
12:39 AM 53.8°F12.1°C 50.3°F10.2°C 88% 14.0 mph E22.5 kmh E 25.0 mph40.2 kmh 29.59 in1002.0 mb 0.00 in0.0 mm 0.00 in/hr0.0 mm/hr 0.00 in0.0 mm
12:38 AM 53.8°F12.1°C 50.3°F10.2°C 88% 15.0 mph SSE24.1 kmh SSE 25.0 mph40.2 kmh 29.58 in1001.7 mb 0.00 in0.0 mm 0.00 in/hr0.0 mm/hr 0.00 in0.0 mm
12:37 AM 53.8°F12.1°C 50.3°F10.2°C 88% 20.0 mph SE32.2 kmh SE 25.0 mph40.2 kmh 29.59 in1002.0 mb 0.00 in0.0 mm 0.00 in/hr0.0 mm/hr 0.00 in0.0 mm
12:36 AM 53.8°F12.1°C 50.3°F10.2°C 88% 9.0 mph SE14.5 kmh SE 21.0 mph33.8 kmh 29.59 in1002.0 mb 0.00 in0.0 mm 0.00 in/hr0.0 mm/hr 0.00 in0.0 mm
12:35 AM 53.8°F12.1°C 50.3°F10.2°C 88% 6.0 mph ENE9.7 kmh ENE 21.0 mph33.8 kmh 29.59 in1002.0 mb 0.00 in0.0 mm 0.00 in/hr0.0 mm/hr 0.00 in0.0 mm
12:34 AM 53.9°F12.2°C 50.4°F10.2°C 88% 17.0 mph E27.4 kmh E 21.0 mph33.8 kmh 29.59 in1002.0 mb 0.00 in0.0 mm 0.00 in/hr0.0 mm/hr 0.00 in0.0 mm
12:33 AM 53.8°F12.1°C 50.3°F10.2°C 88% 10.0 mph ESE16.1 kmh ESE 21.0 mph33.8 kmh 29.59 in1002.0 mb 0.00 in0.0 mm 0.00 in/hr0.0 mm/hr 0.00 in0.0 mm
12:32 AM 53.8°F12.1°C 50.3°F10.2°C 88% 15.0 mph ENE24.1 kmh ENE 19.0 mph30.6 kmh 29.59 in1002.0 mb 0.00 in0.0 mm 0.00 in/hr0.0 mm/hr 0.00 in0.0 mm
12:31 AM 53.8°F12.1°C 50.3°F10.2°C 88% 20.0 mph SE32.2 kmh SE 33.0 mph53.1 kmh 29.59 in1002.0 mb 0.00 in0.0 mm 0.00 in/hr0.0 mm/hr 0.00 in0.0 mm
12:30 AM 53.8°F12.1°C 50.3°F10.2°C 88% 13.0 mph E20.9 kmh E 33.0 mph53.1 kmh 29.59 in1002.0 mb 0.00 in0.0 mm 0.00 in/hr0.0 mm/hr 0.00 in0.0 mm
12:29 AM 53.8°F12.1°C 50.3°F10.2°C 88% 14.0 mph E22.5 kmh E 33.0 mph53.1 kmh 29.59 in1002.0 mb 0.00 in0.0 mm 0.00 in/hr0.0 mm/hr 0.00 in0.0 mm
12:28 AM 53.8°F12.1°C 50.3°F10.2°C 88% 12.0 mph ESE19.3 kmh ESE 33.0 mph53.1 kmh 29.58 in1001.7 mb 0.00 in0.0 mm 0.00 in/hr0.0 mm/hr 0.00 in0.0 mm
12:27 AM 53.8°F12.1°C 50.3°F10.2°C 88% 7.0 mph SE11.3 kmh SE 33.0 mph53.1 kmh 29.58 in1001.7 mb 0.00 in0.0 mm 0.00 in/hr0.0 mm/hr 0.00 in0.0 mm
12:26 AM 53.8°F12.1°C 50.3°F10.2°C 88% 16.0 mph ENE25.7 kmh ENE 33.0 mph53.1 kmh 29.59 in1002.0 mb 0.00 in0.0 mm 0.00 in/hr0.0 mm/hr 0.00 in0.0 mm
12:24 AM 53.7°F12.1°C 50.2°F10.1°C 88% 21.0 mph E33.8 kmh E 33.0 mph53.1 kmh 29.59 in1002.0 mb 0.00 in0.0 mm 0.00 in/hr0.0 mm/hr 0.00 in0.0 mm
12:23 AM 53.7°F12.1°C 50.2°F10.1°C 88% 8.0 mph SE12.9 kmh SE 33.0 mph53.1 kmh 29.58 in1001.7 mb 0.00 in0.0 mm 0.00 in/hr0.0 mm/hr 0.00 in0.0 mm
12:22 AM 53.8°F12.1°C 50.3°F10.2°C 88% 19.0 mph SE30.6 kmh SE 33.0 mph53.1 kmh 29.58 in1001.7 mb 0.00 in0.0 mm 0.00 in/hr0.0 mm/hr 0.00 in0.0 mm
12:21 AM 53.8°F12.1°C 50.3°F10.2°C 88% 16.0 mph SE25.7 kmh SE 33.0 mph53.1 kmh 29.59 in1002.0 mb 0.00 in0.0 mm 0.00 in/hr0.0 mm/hr 0.00 in0.0 mm
12:20 AM 53.8°F12.1°C 50.3°F10.2°C 88% 8.0 mph SE12.9 kmh SE 33.0 mph53.1 kmh 29.59 in1002.0 mb 0.00 in0.0 mm 0.00 in/hr0.0 mm/hr 0.00 in0.0 mm
12:19 AM 53.9°F12.2°C 50.4°F10.2°C 88% 14.0 mph NE22.5 kmh NE 33.0 mph53.1 kmh 29.58 in1001.7 mb 0.00 in0.0 mm 0.00 in/hr0.0 mm/hr 0.00 in0.0 mm
12:18 AM 53.9°F12.2°C 50.4°F10.2°C 88% 16.0 mph SE25.7 kmh SE 33.0 mph53.1 kmh 29.58 in1001.7 mb 0.00 in0.0 mm 0.00 in/hr0.0 mm/hr 0.00 in0.0 mm
12:17 AM 53.9°F12.2°C 50.1°F10.1°C 87% 13.0 mph SE20.9 kmh SE 28.0 mph45.1 kmh 29.58 in1001.7 mb 0.00 in0.0 mm 0.00 in/hr0.0 mm/hr 0.00 in0.0 mm
12:16 AM 53.8°F12.1°C 50.0°F10.0°C 87% 11.0 mph NE17.7 kmh NE 28.0 mph45.1 kmh 29.58 in1001.7 mb 0.00 in0.0 mm 0.00 in/hr0.0 mm/hr 0.00 in0.0 mm
12:15 AM 53.8°F12.1°C 50.0°F10.0°C 87% 15.0 mph ESE24.1 kmh ESE 28.0 mph45.1 kmh 29.59 in1002.0 mb 0.00 in0.0 mm 0.00 in/hr0.0 mm/hr 0.00 in0.0 mm
12:14 AM 53.8°F12.1°C 50.3°F10.2°C 88% 15.0 mph E24.1 kmh E 28.0 mph45.1 kmh 29.59 in1002.0 mb 0.00 in0.0 mm 0.00 in/hr0.0 mm/hr 0.00 in0.0 mm
12:13 AM 53.8°F12.1°C 50.3°F10.2°C 88% 16.0 mph ENE25.7 kmh ENE 28.0 mph45.1 kmh 29.59 in1002.0 mb 0.00 in0.0 mm 0.00 in/hr0.0 mm/hr 0.00 in0.0 mm
12:12 AM 53.8°F12.1°C 50.0°F10.0°C 87% 13.0 mph SE20.9 kmh SE 28.0 mph45.1 kmh 29.59 in1002.0 mb 0.00 in0.0 mm 0.00 in/hr0.0 mm/hr 0.00 in0.0 mm
12:11 AM 53.8°F12.1°C 50.0°F10.0°C 87% 8.0 mph E12.9 kmh E 28.0 mph45.1 kmh 29.59 in1002.0 mb 0.00 in0.0 mm 0.00 in/hr0.0 mm/hr 0.00 in0.0 mm
12:10 AM 53.8°F12.1°C 50.3°F10.2°C 88% 17.0 mph SE27.4 kmh SE 28.0 mph45.1 kmh 29.58 in1001.7 mb 0.00 in0.0 mm 0.00 in/hr0.0 mm/hr 0.00 in0.0 mm
12:09 AM 53.9°F12.2°C 50.4°F10.2°C 88% 17.0 mph ESE27.4 kmh ESE 27.0 mph43.5 kmh 29.59 in1002.0 mb 0.00 in0.0 mm 0.00 in/hr0.0 mm/hr 0.00 in0.0 mm
12:08 AM 53.9°F12.2°C 50.1°F10.1°C 87% 10.0 mph ESE16.1 kmh ESE 27.0 mph43.5 kmh 29.59 in1002.0 mb 0.00 in0.0 mm 0.00 in/hr0.0 mm/hr 0.00 in0.0 mm
12:06 AM 53.9°F12.2°C 50.1°F10.1°C 87% 14.0 mph E22.5 kmh E 27.0 mph43.5 kmh 29.59 in1002.0 mb 0.00 in0.0 mm 0.00 in/hr0.0 mm/hr 0.00 in0.0 mm
12:05 AM 53.9°F12.2°C 50.1°F10.1°C 87% 4.0 mph ENE6.4 kmh ENE 26.0 mph41.8 kmh 29.59 in1002.0 mb 0.00 in0.0 mm 0.00 in/hr0.0 mm/hr 0.00 in0.0 mm
12:04 AM 53.9°F12.2°C 50.1°F10.1°C 87% 13.0 mph ESE20.9 kmh ESE 26.0 mph41.8 kmh 29.59 in1002.0 mb 0.00 in0.0 mm 0.00 in/hr0.0 mm/hr 0.00 in0.0 mm
12:03 AM 53.9°F12.2°C 50.1°F10.1°C 87% 16.0 mph E25.7 kmh E 26.0 mph41.8 kmh 29.59 in1002.0 mb 0.00 in0.0 mm 0.00 in/hr0.0 mm/hr 0.00 in0.0 mm
12:02 AM 53.9°F12.2°C 50.1°F10.1°C 87% 16.0 mph SE25.7 kmh SE 26.0 mph41.8 kmh 29.58 in1001.7 mb 0.00 in0.0 mm 0.00 in/hr0.0 mm/hr 0.00 in0.0 mm
12:01 AM 53.9°F12.2°C 50.4°F10.2°C 88% 12.0 mph ESE19.3 kmh ESE 32.0 mph51.5 kmh 29.58 in1001.7 mb 0.00 in0.0 mm 0.00 in/hr0.0 mm/hr 0.00 in0.0 mm
12:00 AM 54.0°F12.2°C 50.2°F10.1°C 87% 10.0 mph E16.1 kmh E 32.0 mph51.5 kmh 29.59 in1002.0 mb 0.00 in0.0 mm 0.00 in/hr0.0 mm/hr 0.00 in0.0 mm